Terminal Aerodrome Forecast
Issued by NWS Tulsa, OK

Home | Current Version | Previous Version | Text Only | Print | Product List | Glossary On
Versions: 1 2 3 4 5 6 7 8 9 10 11 12 13 14
863
FTUS44 KTSA 102320
TAFFSM
TAF
KFSM 102320Z 1100/1124 14008KT P6SM OVC050
     FM110600 08008KT P6SM SCT025 BKN250 WS020/22045KT
     FM110900 12012KT P6SM BKN025 WS020/22045KT
     FM111300 12012KT P6SM OVC015 WS020/22045KT=

USA.gov is the U.S. government's official web portal to all federal, state and local government web resources and services.